Time;durP1;ratioP1;P1;durP2;ratioP2;P2;SDS_P1;SDS_P2;PMS_P1;PMS_P2;Temp;Humidity;BMP_temperature;BMP_pressure;BME280_temperature;BME280_humidity;BME280_pressure;Samples;Min_cycle;Max_cycle;Signal;HPM_P1;HPM_P2
2022/07/23 00:01:21;;;;;;;9.88;8.43;;;27.60;51.80;;;;;;5092762;28;20077;-73
2022/07/23 00:03:47;;;;;;;9.57;8.52;;;27.60;51.90;;;;;;5092710;28;20429;-73
2022/07/23 00:06:14;;;;;;;11.32;9.07;;;27.60;52.10;;;;;;5092994;28;20016;-74
2022/07/23 00:08:40;;;;;;;9.80;7.60;;;27.60;52.20;;;;;;5092664;28;20012;-74
2022/07/23 00:11:05;;;;;;;8.35;7.50;;;27.60;52.30;;;;;;5092593;28;20027;-71
2022/07/23 00:13:31;;;;;;;9.52;8.23;;;27.60;52.40;;;;;;5091185;28;20540;-72
2022/07/23 00:15:57;;;;;;;10.70;9.63;;;27.60;52.40;;;;;;5092424;28;20036;-73
2022/07/23 00:18:23;;;;;;;9.38;7.82;;;27.60;52.30;;;;;;5091085;28;20111;-72
2022/07/23 00:20:49;;;;;;;14.98;8.07;;;27.60;53.00;;;;;;5092048;28;20052;-73
2022/07/23 00:23:15;;;;;;;8.73;7.45;;;27.60;52.50;;;;;;5091131;28;20485;-73
2022/07/23 00:25:41;;;;;;;8.70;7.80;;;27.60;52.60;;;;;;5092501;28;20031;-70
2022/07/23 00:28:07;;;;;;;10.02;7.00;;;27.50;52.00;;;;;;5096160;28;20527;-72
2022/07/23 00:30:33;;;;;;;13.55;7.38;;;27.50;52.00;;;;;;5112715;28;20020;-73
2022/07/23 00:33:04;;;;;;;9.77;7.55;;;27.50;52.20;;;;;;5113635;28;20027;-73
2022/07/23 00:35:33;;;;;;;10.93;7.80;;;27.50;52.20;;;;;;5116495;28;20011;-71
2022/07/23 00:37:59;;;;;;;9.55;7.72;;;27.50;52.20;;;;;;5116451;28;20422;-73
2022/07/23 00:40:26;;;;;;;9.40;7.07;;;27.40;52.20;;;;;;5116566;28;20425;-72
2022/07/23 00:42:52;;;;;;;10.93;8.00;;;27.40;52.40;;;;;;5116349;28;20465;-71
2022/07/23 00:45:18;;;;;;;8.27;7.15;;;27.40;52.50;;;;;;5116252;28;20058;-73
2022/07/23 00:47:44;;;;;;;7.60;6.80;;;27.40;52.40;;;;;;5116249;28;20023;-70
2022/07/23 00:50:10;;;;;;;8.70;7.53;;;27.40;52.40;;;;;;5100146;28;20381;-72
2022/07/23 00:52:37;;;;;;;9.93;7.80;;;27.40;52.60;;;;;;5095672;28;20035;-71
2022/07/23 00:55:04;;;;;;;8.27;7.05;;;27.40;52.70;;;;;;5095627;28;20496;-70
2022/07/23 00:57:30;;;;;;;10.52;7.45;;;27.40;52.90;;;;;;5094366;28;20031;-73
2022/07/23 00:59:57;;;;;;;9.05;7.93;;;27.40;52.70;;;;;;5095834;28;20103;-74
2022/07/23 01:02:24;;;;;;;9.80;7.72;;;27.30;52.70;;;;;;5094199;28;20500;-71
2022/07/23 01:04:50;;;;;;;11.98;9.05;;;27.30;53.00;;;;;;5095491;28;20028;-73
2022/07/23 01:07:18;;;;;;;10.45;8.40;;;27.30;53.30;;;;;;5095451;28;20043;-71
2022/07/23 01:09:45;;;;;;;13.18;7.80;;;27.30;53.10;;;;;;5095359;28;20028;-73
2022/07/23 01:12:10;;;;;;;12.90;9.30;;;27.30;53.20;;;;;;5094039;28;20028;-72
2022/07/23 01:14:36;;;;;;;9.50;8.13;;;27.30;53.20;;;;;;5095284;28;20024;-73
2022/07/23 01:17:03;;;;;;;10.82;7.65;;;27.30;53.20;;;;;;5095210;28;20032;-73
2022/07/23 01:19:29;;;;;;;7.97;7.18;;;27.30;53.30;;;;;;5095131;28;20032;-73
2022/07/23 01:21:57;;;;;;;9.40;8.35;;;27.30;53.50;;;;;;5094764;28;20048;-73
2022/07/23 01:24:23;;;;;;;8.68;7.60;;;27.30;53.30;;;;;;5095011;28;20063;-72
2022/07/23 01:26:50;;;;;;;8.77;7.88;;;27.30;52.90;;;;;;5094924;28;20419;-73
2022/07/23 01:29:17;;;;;;;9.07;7.38;;;27.30;52.90;;;;;;5095244;28;20027;-72
2022/07/23 01:31:43;;;;;;;9.25;7.10;;;27.30;52.60;;;;;;5094828;28;20028;-73
2022/07/23 01:34:10;;;;;;;8.32;7.43;;;27.30;52.70;;;;;;5094699;28;20107;-70
2022/07/23 01:36:36;;;;;;;11.27;8.95;;;27.30;52.20;;;;;;5094557;28;20024;-73
2022/07/23 01:39:04;;;;;;;10.15;7.80;;;27.30;52.30;;;;;;5094547;28;20028;-73
2022/07/23 01:41:30;;;;;;;9.60;8.07;;;27.30;52.50;;;;;;5094601;28;20024;-74
2022/07/23 01:43:56;;;;;;;10.05;7.63;;;27.30;52.30;;;;;;5094484;28;20058;-73
2022/07/23 01:46:22;;;;;;;7.80;7.10;;;27.30;52.00;;;;;;5093272;28;20099;-72
2022/07/23 01:48:48;;;;;;;7.53;6.72;;;27.30;51.90;;;;;;5094422;28;20027;-72
2022/07/23 01:51:14;;;;;;;12.98;7.97;;;27.30;51.80;;;;;;5094380;28;20020;-71
2022/07/23 01:53:40;;;;;;;9.98;7.50;;;27.30;51.70;;;;;;5094301;28;20507;-73
2022/07/23 01:56:06;;;;;;;11.32;8.27;;;27.30;51.60;;;;;;5094338;28;20496;-72
2022/07/23 01:58:33;;;;;;;8.73;7.43;;;27.30;51.60;;;;;;5094493;28;20081;-72
2022/07/23 02:00:59;;;;;;;8.18;7.22;;;27.30;51.60;;;;;;5094456;28;20028;-73
2022/07/23 02:03:26;;;;;;;7.13;6.43;;;27.30;51.60;;;;;;5094218;28;20025;-71
2022/07/23 02:05:52;;;;;;;7.10;6.38;;;27.30;51.60;;;;;;5094173;28;20427;-71
2022/07/23 02:08:18;;;;;;;8.30;7.03;;;27.30;51.60;;;;;;5092802;28;20024;-70
2022/07/23 02:10:45;;;;;;;10.27;8.50;;;27.30;51.80;;;;;;5094050;28;20039;-71
2022/07/23 02:13:11;;;;;;;8.40;7.45;;;27.30;52.00;;;;;;5094005;28;20028;-72
2022/07/23 02:15:37;;;;;;;7.65;6.55;;;27.30;52.00;;;;;;5094040;28;20031;-73
2022/07/23 02:18:03;;;;;;;7.63;6.82;;;27.30;51.90;;;;;;5093936;28;20077;-72
2022/07/23 02:20:29;;;;;;;12.45;7.95;;;27.20;52.10;;;;;;5093679;28;20048;-74
2022/07/23 02:22:55;;;;;;;8.18;6.97;;;27.20;52.50;;;;;;5093849;28;20538;-72
2022/07/23 02:25:20;;;;;;;13.10;7.72;;;27.20;52.30;;;;;;5093914;28;20468;-70
2022/07/23 02:27:46;;;;;;;9.30;6.88;;;27.10;52.20;;;;;;5092546;28;20453;-73
2022/07/23 02:30:12;;;;;;;8.52;6.68;;;27.10;52.40;;;;;;5092878;28;20031;-73
2022/07/23 02:32:39;;;;;;;8.68;7.78;;;27.00;52.40;;;;;;5112130;28;20024;-71
2022/07/23 02:35:05;;;;;;;8.65;7.78;;;27.00;52.50;;;;;;5114012;28;20019;-72
2022/07/23 02:37:32;;;;;;;10.35;7.68;;;26.90;52.80;;;;;;5113966;28;20068;-72
2022/07/23 02:39:57;;;;;;;10.38;7.28;;;26.90;52.90;;;;;;5113871;27;20020;-71
2022/07/23 02:42:23;;;;;;;9.00;6.72;;;26.90;52.90;;;;;;5113996;28;20525;-74
2022/07/23 02:44:50;;;;;;;8.48;7.22;;;26.90;52.90;;;;;;5113821;28;20031;-71
2022/07/23 02:47:16;;;;;;;7.85;6.97;;;26.90;53.10;;;;;;5097244;28;20024;-72
2022/07/23 02:49:42;;;;;;;8.55;7.60;;;26.90;53.10;;;;;;5091419;28;20546;-72
2022/07/23 02:52:10;;;;;;;9.25;7.25;;;26.90;53.20;;;;;;5091994;28;20032;-74
2022/07/23 02:54:37;;;;;;;8.18;6.97;;;26.90;53.10;;;;;;5093131;28;20366;-71
2022/07/23 02:57:03;;;;;;;7.78;6.53;;;26.80;53.10;;;;;;5091935;28;20078;-73
2022/07/23 02:59:29;;;;;;;10.65;7.18;;;26.80;53.10;;;;;;5092289;28;20032;-73
2022/07/23 03:01:55;;;;;;;9.55;7.75;;;26.80;53.40;;;;;;5093109;28;20427;-73
2022/07/23 03:04:21;;;;;;;10.55;8.18;;;26.80;53.60;;;;;;5093187;28;20020;-71
2022/07/23 03:06:46;;;;;;;13.50;8.02;;;26.80;53.70;;;;;;5093254;28;20031;-73
2022/07/23 03:09:12;;;;;;;9.73;7.72;;;26.70;53.80;;;;;;5093264;28;20389;-71
2022/07/23 03:11:38;;;;;;;8.85;7.72;;;26.70;53.70;;;;;;5093264;28;20465;-71
2022/07/23 03:14:04;;;;;;;8.90;6.95;;;26.70;53.60;;;;;;5093173;28;20066;-72
2022/07/23 03:16:30;;;;;;;8.95;7.45;;;26.70;53.80;;;;;;5093221;28;20570;-74
2022/07/23 03:18:56;;;;;;;8.48;7.43;;;26.70;53.90;;;;;;5093173;28;20039;-72
2022/07/23 03:21:21;;;;;;;10.32;8.10;;;26.70;53.90;;;;;;5093223;28;20115;-73
2022/07/23 03:23:47;;;;;;;9.80;8.02;;;26.70;53.90;;;;;;5093430;28;20024;-72
2022/07/23 03:26:13;;;;;;;11.10;7.60;;;26.70;54.10;;;;;;5093082;28;20027;-71
2022/07/23 03:28:39;;;;;;;8.63;7.40;;;26.70;54.00;;;;;;5093320;28;20025;-71
2022/07/23 03:31:04;;;;;;;13.40;7.70;;;26.70;54.00;;;;;;5091701;28;20385;-72
2022/07/23 03:33:30;;;;;;;8.02;7.22;;;26.70;54.20;;;;;;5093023;28;20024;-73
2022/07/23 03:35:56;;;;;;;8.52;7.35;;;26.60;54.10;;;;;;5092999;28;20514;-72
2022/07/23 03:38:22;;;;;;;12.93;8.02;;;26.70;54.40;;;;;;5091717;28;20476;-73
2022/07/23 03:40:48;;;;;;;9.00;7.50;;;26.60;54.40;;;;;;5091609;28;20085;-72
2022/07/23 03:43:14;;;;;;;10.10;8.02;;;26.60;54.50;;;;;;5092885;28;20472;-72
2022/07/23 03:45:39;;;;;;;10.07;8.20;;;26.60;54.50;;;;;;5093044;28;20376;-73
2022/07/23 03:48:05;;;;;;;10.30;8.00;;;26.60;54.70;;;;;;5091478;28;20024;-72
2022/07/23 03:50:31;;;;;;;9.93;8.65;;;26.60;55.00;;;;;;5092702;28;20050;-72
2022/07/23 03:52:57;;;;;;;9.90;8.80;;;26.50;55.00;;;;;;5092800;28;20046;-73
2022/07/23 03:55:23;;;;;;;9.68;8.07;;;26.50;55.30;;;;;;5092686;28;20654;-72
2022/07/23 03:57:48;;;;;;;9.65;8.13;;;26.40;55.30;;;;;;5092755;28;20034;-70
2022/07/23 04:00:15;;;;;;;8.95;8.05;;;26.40;55.40;;;;;;5093931;28;20020;-73
2022/07/23 04:02:41;;;;;;;11.63;8.25;;;26.40;55.60;;;;;;5095452;28;20119;-71
2022/07/23 04:05:07;;;;;;;8.30;7.35;;;26.30;55.50;;;;;;5095385;28;20576;-71
2022/07/23 04:07:33;;;;;;;9.27;7.82;;;26.40;55.40;;;;;;5112412;28;20028;-72
2022/07/23 04:09:58;;;;;;;8.40;7.28;;;26.40;55.20;;;;;;5096673;28;20492;-70
2022/07/23 04:12:24;;;;;;;11.80;9.57;;;26.30;55.10;;;;;;5096483;28;20111;-71
2022/07/23 04:14:50;;;;;;;8.80;7.45;;;26.40;55.10;;;;;;5095174;28;20073;-71
2022/07/23 04:17:16;;;;;;;10.07;8.23;;;26.40;55.20;;;;;;5096339;28;20020;-70
2022/07/23 04:19:43;;;;;;;10.68;8.30;;;26.40;55.10;;;;;;5096284;28;20024;-73
2022/07/23 04:22:10;;;;;;;12.80;8.82;;;26.40;55.10;;;;;;5094745;28;20052;-71
2022/07/23 04:24:38;;;;;;;12.70;9.02;;;26.50;55.20;;;;;;5096185;28;20042;-71
2022/07/23 04:27:04;;;;;;;10.15;8.60;;;26.50;55.10;;;;;;5096031;28;20036;-72
2022/07/23 04:29:30;;;;;;;7.93;7.13;;;26.50;54.90;;;;;;5096696;28;20104;-72
2022/07/23 04:31:56;;;;;;;9.45;7.68;;;26.60;54.90;;;;;;5094645;28;20536;-71
2022/07/23 04:34:22;;;;;;;8.48;7.68;;;26.60;54.80;;;;;;5095994;28;20024;-71
2022/07/23 04:36:48;;;;;;;9.00;7.93;;;26.60;54.70;;;;;;5095969;28;20069;-72
2022/07/23 04:39:14;;;;;;;9.48;7.30;;;26.60;54.60;;;;;;5094582;28;20020;-73
2022/07/23 04:41:40;;;;;;;10.75;7.50;;;26.60;55.10;;;;;;5095845;28;20024;-71
2022/07/23 04:44:06;;;;;;;8.43;7.60;;;26.70;55.00;;;;;;5095406;28;20107;-71
2022/07/23 04:46:32;;;;;;;11.77;8.15;;;26.70;54.40;;;;;;5095769;28;20028;-73
2022/07/23 04:48:58;;;;;;;9.48;8.23;;;26.70;54.40;;;;;;5095700;28;20433;-71
2022/07/23 04:51:24;;;;;;;12.38;7.82;;;26.80;54.40;;;;;;5095580;28;20051;-71
2022/07/23 04:53:50;;;;;;;9.38;6.20;;;26.80;53.70;;;;;;5095541;28;20051;-73
2022/07/23 04:56:16;;;;;;;10.10;5.80;;;26.80;51.90;;;;;;5095573;28;20050;-73
2022/07/23 04:58:42;;;;;;;6.53;5.80;;;26.90;51.50;;;;;;5094511;28;20020;-72
2022/07/23 05:01:07;;;;;;;7.07;5.60;;;26.90;51.70;;;;;;5102877;28;20104;-73
2022/07/23 05:03:33;;;;;;;5.90;5.30;;;27.00;51.50;;;;;;5115851;28;20035;-72
2022/07/23 05:05:59;;;;;;;6.10;5.30;;;27.10;51.50;;;;;;5114435;28;20078;-71
2022/07/23 05:08:25;;;;;;;7.40;5.82;;;27.20;51.40;;;;;;5114393;28;20388;-73
2022/07/23 05:10:51;;;;;;;6.07;5.47;;;27.30;51.20;;;;;;5115605;28;20110;-72
2022/07/23 05:13:17;;;;;;;6.15;5.40;;;27.40;51.00;;;;;;5113695;28;20495;-74
2022/07/23 05:15:44;;;;;;;5.60;5.10;;;27.60;50.80;;;;;;5115532;28;20024;-74
2022/07/23 05:18:10;;;;;;;6.47;5.60;;;27.70;50.90;;;;;;5114148;28;20473;-72
2022/07/23 05:20:36;;;;;;;5.78;5.05;;;27.90;51.00;;;;;;5114086;28;20043;-73
2022/07/23 05:23:02;;;;;;;6.80;5.70;;;28.00;49.60;;;;;;5114157;28;20102;-73
2022/07/23 05:25:28;;;;;;;7.47;5.20;;;28.20;49.80;;;;;;5114026;28;20053;-70
2022/07/23 05:27:54;;;;;;;9.63;6.07;;;28.30;49.50;;;;;;5115203;27;20072;-74
2022/07/23 05:30:20;;;;;;;6.50;5.75;;;28.50;49.70;;;;;;5115693;27;20028;-71
2022/07/23 05:32:46;;;;;;;7.78;5.28;;;28.60;49.40;;;;;;5133671;27;20023;-70
2022/07/23 05:35:12;;;;;;;7.00;5.78;;;28.60;49.30;;;;;;5134824;27;20026;-69
2022/07/23 05:37:38;;;;;;;7.65;5.32;;;28.80;49.30;;;;;;5134110;27;20019;-71
2022/07/23 05:40:07;;;;;;;10.10;5.43;;;28.80;49.20;;;;;;5135015;27;20428;-71
2022/07/23 05:42:37;;;;;;;7.25;5.30;;;28.90;49.00;;;;;;5112852;27;20073;-74
2022/07/23 05:45:04;;;;;;;5.13;4.32;;;29.00;48.50;;;;;;5093644;28;20043;-71
2022/07/23 05:47:47;;;;;;;9.13;4.65;;;29.00;48.00;;;;;;5093500;28;20062;-73
2022/07/23 05:50:14;;;;;;;6.25;4.95;;;29.10;48.00;;;;;;5095254;28;20485;-73
2022/07/23 05:52:40;;;;;;;6.07;4.97;;;29.10;47.90;;;;;;5113932;28;20027;-69
2022/07/23 05:55:07;;;;;;;13.60;6.72;;;29.10;48.00;;;;;;5114112;28;20020;-73
2022/07/23 05:57:32;;;;;;;9.02;4.93;;;29.20;47.70;;;;;;5114053;28;20020;-72
2022/07/23 05:59:58;;;;;;;5.93;4.32;;;29.10;47.10;;;;;;5100359;28;20035;-73
2022/07/23 06:02:24;;;;;;;5.20;4.35;;;29.10;47.20;;;;;;5130948;27;20031;-72
2022/07/23 06:04:50;;;;;;;4.82;4.22;;;29.10;47.20;;;;;;5134200;27;20384;-72
2022/07/23 06:07:16;;;;;;;5.10;3.92;;;29.10;47.30;;;;;;5132840;27;20055;-73
2022/07/23 06:09:41;;;;;;;5.55;4.20;;;29.10;47.10;;;;;;5134050;27;20023;-72
2022/07/23 06:12:08;;;;;;;5.20;4.00;;;29.00;47.10;;;;;;5133837;27;20042;-73
2022/07/23 06:14:33;;;;;;;6.90;4.88;;;29.00;47.20;;;;;;5133906;27;20035;-71
2022/07/23 06:16:59;;;;;;;5.15;4.03;;;29.00;46.90;;;;;;5132626;27;20023;-70
2022/07/23 06:19:25;;;;;;;6.47;3.90;;;29.00;46.50;;;;;;5133836;27;20498;-71
2022/07/23 06:21:51;;;;;;;5.18;4.18;;;29.00;46.70;;;;;;5133689;27;20092;-71
2022/07/23 06:24:17;;;;;;;11.80;4.00;;;29.00;46.90;;;;;;5132803;27;20443;-72
2022/07/23 06:26:43;;;;;;;5.57;4.05;;;29.10;46.50;;;;;;5133651;27;20029;-72
2022/07/23 06:29:09;;;;;;;5.28;4.57;;;29.20;46.50;;;;;;5127802;27;20024;-73
2022/07/23 06:31:38;;;;;;;5.18;4.63;;;29.30;46.50;;;;;;5112998;28;20027;-71
2022/07/23 06:34:03;;;;;;;5.72;4.60;;;29.40;45.90;;;;;;5113012;28;20051;-72
2022/07/23 06:36:29;;;;;;;8.00;4.50;;;29.50;45.80;;;;;;5113044;28;20494;-73
2022/07/23 06:38:55;;;;;;;6.55;4.53;;;29.60;45.40;;;;;;5112809;28;20031;-73
2022/07/23 06:41:22;;;;;;;5.40;4.68;;;29.70;45.20;;;;;;5098885;28;20028;-71
2022/07/23 06:43:48;;;;;;;6.97;4.65;;;29.80;45.10;;;;;;5091086;28;20024;-70
2022/07/23 06:46:14;;;;;;;4.35;3.95;;;29.90;44.90;;;;;;5091179;28;20040;-72
2022/07/23 06:48:40;;;;;;;5.70;4.65;;;30.00;45.10;;;;;;5092511;28;20020;-71
2022/07/23 06:51:06;;;;;;;5.57;4.15;;;30.10;44.60;;;;;;5092472;28;20495;-73
2022/07/23 06:53:31;;;;;;;5.13;4.63;;;30.30;44.90;;;;;;5092373;28;20098;-73
2022/07/23 06:55:57;;;;;;;5.35;4.22;;;30.40;44.50;;;;;;5099397;28;20024;-72
2022/07/23 06:58:23;;;;;;;5.97;4.05;;;30.50;44.20;;;;;;5112503;28;20476;-71
2022/07/23 07:00:49;;;;;;;5.68;4.70;;;30.60;44.30;;;;;;5112445;28;20065;-73
2022/07/23 07:03:17;;;;;;;6.63;4.25;;;30.70;43.80;;;;;;5112498;28;20091;-73
2022/07/23 07:05:42;;;;;;;13.80;4.20;;;30.80;43.10;;;;;;5112452;28;20027;-73
2022/07/23 07:08:08;;;;;;;4.97;4.43;;;30.80;42.70;;;;;;5111093;28;20020;-71
2022/07/23 07:10:34;;;;;;;12.93;4.10;;;30.80;42.90;;;;;;5110550;28;20488;-73
2022/07/23 07:13:00;;;;;;;5.93;4.55;;;30.90;43.00;;;;;;5112348;28;20023;-74
2022/07/23 07:15:25;;;;;;;11.38;4.30;;;30.80;42.10;;;;;;5112283;28;20469;-74
2022/07/23 07:17:51;;;;;;;13.88;3.97;;;30.80;42.50;;;;;;5112295;28;20478;-71
2022/07/23 07:20:17;;;;;;;5.68;3.88;;;30.90;42.40;;;;;;5110442;28;20046;-72
2022/07/23 07:22:43;;;;;;;6.40;4.80;;;30.90;42.20;;;;;;5112225;28;20379;-71
2022/07/23 07:25:09;;;;;;;5.20;4.07;;;30.90;42.10;;;;;;5112223;28;20020;-71
2022/07/23 07:27:35;;;;;;;5.82;4.30;;;30.90;42.00;;;;;;5112207;28;20038;-71
2022/07/23 07:30:01;;;;;;;6.50;4.25;;;30.90;41.80;;;;;;5106518;28;20036;-72
2022/07/23 07:32:27;;;;;;;6.53;4.20;;;31.00;41.90;;;;;;5091621;28;20028;-72
2022/07/23 07:34:52;;;;;;;9.52;4.40;;;31.10;42.00;;;;;;5092730;28;20061;-74
2022/07/23 07:37:18;;;;;;;6.43;4.68;;;31.30;41.50;;;;;;5098582;28;20016;-72
2022/07/23 07:39:44;;;;;;;5.63;4.82;;;31.40;41.30;;;;;;5097064;28;20031;-73
2022/07/23 07:42:10;;;;;;;6.38;4.53;;;31.50;41.10;;;;;;5098461;28;20058;-72
2022/07/23 07:44:36;;;;;;;6.22;4.50;;;31.60;40.60;;;;;;5098457;28;20463;-72
2022/07/23 07:47:01;;;;;;;6.13;4.75;;;31.70;40.50;;;;;;5097565;28;20028;-72
2022/07/23 07:49:27;;;;;;;9.50;5.25;;;31.80;40.40;;;;;;5098376;28;20024;-72
2022/07/23 07:51:53;;;;;;;5.75;4.70;;;31.80;40.00;;;;;;5098326;28;20028;-72
2022/07/23 07:54:19;;;;;;;8.18;4.70;;;31.90;40.00;;;;;;5096847;28;20048;-73
2022/07/23 07:56:45;;;;;;;8.27;4.90;;;31.90;40.50;;;;;;5098349;28;20507;-71
2022/07/23 07:59:11;;;;;;;6.57;4.53;;;32.00;39.60;;;;;;5106022;28;20515;-71
2022/07/23 08:01:37;;;;;;;6.43;4.68;;;32.10;39.80;;;;;;5116700;28;20441;-73
2022/07/23 08:04:03;;;;;;;5.40;4.78;;;32.10;39.50;;;;;;5118235;28;20024;-73
2022/07/23 08:06:28;;;;;;;8.90;5.10;;;32.10;39.30;;;;;;5117894;28;20574;-72
2022/07/23 08:08:54;;;;;;;7.80;4.45;;;32.10;39.10;;;;;;5118241;28;20476;-71
2022/07/23 08:11:20;;;;;;;10.35;5.53;;;32.10;39.40;;;;;;5119515;28;20024;-72
2022/07/23 08:13:47;;;;;;;5.25;4.05;;;32.10;39.30;;;;;;5119570;28;20019;-72
2022/07/23 08:16:13;;;;;;;6.45;4.35;;;32.10;39.20;;;;;;5119667;28;20028;-72
2022/07/23 08:18:39;;;;;;;4.90;4.38;;;32.20;38.50;;;;;;5119629;28;20012;-72
2022/07/23 08:21:05;;;;;;;7.50;4.05;;;32.20;38.00;;;;;;5117344;28;20043;-71
2022/07/23 08:23:31;;;;;;;7.80;4.30;;;32.30;38.20;;;;;;5118171;28;20016;-71
2022/07/23 08:25:59;;;;;;;6.93;4.82;;;32.30;38.00;;;;;;5118210;28;20027;-75
2022/07/23 08:28:25;;;;;;;5.82;4.28;;;32.40;38.20;;;;;;5118547;28;20023;-75
2022/07/23 08:30:51;;;;;;;4.50;4.05;;;32.40;38.10;;;;;;5118166;28;20498;-74
2022/07/23 08:33:18;;;;;;;9.07;4.22;;;32.50;37.80;;;;;;5116597;28;20023;-73
2022/07/23 08:35:46;;;;;;;4.47;4.05;;;32.60;37.90;;;;;;5117918;28;20053;-70
2022/07/23 08:38:15;;;;;;;4.75;4.10;;;32.70;38.20;;;;;;5116901;28;20054;-74
2022/07/23 08:40:44;;;;;;;6.07;3.75;;;32.80;37.70;;;;;;5126650;27;20023;-74
2022/07/23 08:43:12;;;;;;;11.93;4.88;;;32.90;37.40;;;;;;5129766;27;20059;-72
2022/07/23 08:45:43;;;;;;;13.63;8.50;;;33.00;37.00;;;;;;5130505;27;20025;-72
2022/07/23 08:48:16;;;;;;;10.50;7.70;;;33.10;37.10;;;;;;5115945;27;20031;-72
2022/07/23 08:50:45;;;;;;;14.80;11.40;;;33.20;36.30;;;;;;5114276;28;20068;-76
2022/07/23 08:53:11;;;;;;;15.77;13.43;;;33.30;36.50;;;;;;5124001;27;20035;-69
2022/07/23 08:55:36;;;;;;;23.05;13.90;;;33.40;35.80;;;;;;5127234;27;20068;-75
2022/07/23 08:58:02;;;;;;;10.07;7.60;;;33.50;36.10;;;;;;5126887;27;20054;-72
2022/07/23 09:00:29;;;;;;;8.23;5.63;;;33.60;35.50;;;;;;5125345;27;20054;-77
2022/07/23 09:02:57;;;;;;;10.05;8.27;;;33.70;35.20;;;;;;5125478;27;20019;-73
2022/07/23 09:05:23;;;;;;;9.52;6.97;;;33.70;36.30;;;;;;5126634;27;20380;-77
2022/07/23 09:08:11;;;;;;;12.65;7.57;;;33.80;35.40;;;;;;5125409;27;20077;-74
2022/07/23 09:10:54;;;;;;;8.65;6.07;;;33.90;35.70;;;;;;5125463;27;20019;-72
2022/07/23 09:13:30;;;;;;;8.68;6.30;;;34.00;35.00;;;;;;5123130;27;20072;-74
2022/07/23 09:16:10;;;;;;;5.78;5.18;;;34.10;34.50;;;;;;5123208;27;20023;-74
2022/07/23 09:18:44;;;;;;;13.00;6.57;;;34.10;34.30;;;;;;5124351;27;20085;-77
2022/07/23 09:21:31;;;;;;;10.57;6.13;;;34.20;34.20;;;;;;5121164;27;20081;-74
2022/07/23 09:24:03;;;;;;;15.10;12.57;;;34.30;34.00;;;;;;5113602;27;20110;-78
2022/07/23 09:26:41;;;;;;;13.88;12.15;;;34.30;33.50;;;;;;5121149;27;20019;-74
2022/07/23 09:29:33;;;;;;;13.38;11.95;;;34.40;33.40;;;;;;5114861;27;20023;-74
2022/07/23 09:32:02;;;;;;;14.05;11.00;;;34.40;33.20;;;;;;5111005;27;20035;-76
2022/07/23 09:34:39;;;;;;;13.10;8.98;;;34.50;33.00;;;;;;5124094;27;20015;-76
2022/07/23 09:37:14;;;;;;;9.02;7.95;;;34.50;32.50;;;;;;5124443;27;20039;-76
2022/07/23 09:39:41;;;;;;;7.10;6.40;;;34.50;32.50;;;;;;5125405;27;20050;-75
2022/07/23 09:42:21;;;;;;;5.70;5.05;;;34.60;32.50;;;;;;5124058;27;20031;-74
2022/07/23 09:44:48;;;;;;;5.00;4.28;;;34.60;32.60;;;;;;5120376;27;20031;-75
2022/07/23 09:47:15;;;;;;;5.70;3.70;;;34.50;31.80;;;;;;5123078;27;20031;-75
2022/07/23 09:50:08;;;;;;;5.53;4.55;;;34.50;32.00;;;;;;5125727;27;20015;-75
2022/07/23 09:52:36;;;;;;;6.00;4.00;;;34.40;32.30;;;;;;5123965;27;20019;-75
2022/07/23 09:55:05;;;;;;;4.10;3.70;;;34.50;32.00;;;;;;5123296;27;20354;-75
2022/07/23 09:57:32;;;;;;;6.10;3.53;;;34.50;31.60;;;;;;5124654;27;20018;-75
2022/07/23 10:00:01;;;;;;;4.80;3.90;;;34.50;31.20;;;;;;5123956;27;20076;-75
2022/07/23 10:02:32;;;;;;;7.03;3.70;;;34.60;31.30;;;;;;5121049;27;20110;-75
2022/07/23 10:05:01;;;;;;;9.10;4.00;;;34.60;31.20;;;;;;5124531;27;20046;-75
2022/07/23 10:07:33;;;;;;;6.55;3.88;;;34.60;31.60;;;;;;5125416;27;20476;-75
2022/07/23 10:10:01;;;;;;;3.97;3.58;;;34.60;31.50;;;;;;5124375;27;20020;-75
2022/07/23 10:15:11;;;;;;;5.43;3.72;;;34.50;30.60;;;;;;5123136;27;20027;-75
2022/07/23 10:17:37;;;;;;;9.00;4.88;;;34.50;31.10;;;;;;5124298;27;20023;-75
2022/07/23 10:20:04;;;;;;;12.93;8.93;;;34.50;30.20;;;;;;5120647;27;20036;-75
2022/07/23 10:22:38;;;;;;;11.60;6.55;;;34.50;30.50;;;;;;5124173;27;20488;-75
2022/07/23 10:25:07;;;;;;;7.65;5.70;;;34.50;30.00;;;;;;5122925;27;20091;-75
2022/07/23 10:28:08;;;;;;;9.68;7.10;;;34.50;30.00;;;;;;5123223;27;20031;-75
2022/07/23 10:30:52;;;;;;;8.13;3.35;;;34.50;29.90;;;;;;5086825;27;20047;-75
2022/07/23 10:33:41;;;;;;;5.03;3.20;;;34.40;29.40;;;;;;5123808;27;20023;-75
2022/07/23 10:36:37;;;;;;;5.65;3.75;;;34.30;29.60;;;;;;5118942;27;20039;-75
2022/07/23 10:39:23;;;;;;;5.65;3.88;;;34.30;30.40;;;;;;5119248;27;20028;-75
2022/07/23 10:41:50;;;;;;;9.68;4.93;;;34.20;30.30;;;;;;5122238;27;20015;-75
2022/07/23 10:44:23;;;;;;;4.03;2.50;;;34.30;30.70;;;;;;5120324;27;20058;-75
2022/07/23 10:49:36;;;;;;;3.70;2.63;;;34.30;29.90;;;;;;5123690;27;20030;-75
2022/07/23 10:52:14;;;;;;;6.30;3.72;;;34.30;30.00;;;;;;5121987;27;20367;-75
2022/07/23 10:54:41;;;;;;;4.72;3.00;;;34.30;30.30;;;;;;5120684;27;20027;-76
2022/07/23 10:57:09;;;;;;;5.70;3.10;;;34.40;29.30;;;;;;5122049;27;20020;-76
2022/07/23 11:00:14;;;;;;;7.22;2.75;;;34.40;30.00;;;;;;5121462;27;20076;-76
2022/07/23 11:02:43;;;;;;;3.50;2.80;;;34.40;29.80;;;;;;5123002;27;20031;-75
2022/07/23 11:05:19;;;;;;;5.10;3.08;;;34.30;29.30;;;;;;5118496;27;20464;-75
2022/07/23 11:08:10;;;;;;;4.30;3.13;;;34.30;30.00;;;;;;5121430;27;20451;-75
2022/07/23 11:11:09;;;;;;;5.93;3.30;;;34.20;29.80;;;;;;5112667;27;20032;-75
2022/07/23 11:13:39;;;;;;;5.70;3.30;;;34.20;30.10;;;;;;5059080;28;20037;-75
2022/07/23 11:16:10;;;;;;;6.95;3.42;;;34.10;30.00;;;;;;5058116;28;20032;-75
2022/07/23 11:18:48;;;;;;;3.97;3.20;;;34.10;29.90;;;;;;5056577;28;20478;-75
2022/07/23 11:21:36;;;;;;;3.97;3.58;;;34.10;29.80;;;;;;5048891;28;20064;-75
2022/07/23 11:24:28;;;;;;;3.80;3.35;;;34.10;30.40;;;;;;5021991;28;20032;-75
2022/07/23 11:26:56;;;;;;;7.65;4.30;;;34.10;30.70;;;;;;5040957;28;20052;-75
2022/07/23 11:29:28;;;;;;;10.80;4.10;;;34.10;30.00;;;;;;5046403;28;20032;-75
2022/07/23 11:32:02;;;;;;;13.20;3.80;;;34.00;30.00;;;;;;5055036;28;20053;-76
2022/07/23 11:34:41;;;;;;;3.67;3.30;;;34.00;30.70;;;;;;5054251;28;20032;-75
2022/07/23 11:37:09;;;;;;;5.95;3.72;;;34.00;31.00;;;;;;5043328;28;20033;-75
2022/07/23 11:39:35;;;;;;;5.32;3.90;;;34.00;30.90;;;;;;5058748;28;20508;-75
2022/07/23 11:42:06;;;;;;;6.50;3.85;;;34.00;30.60;;;;;;5043124;28;20052;-75
2022/07/23 11:44:39;;;;;;;6.63;3.80;;;33.90;30.90;;;;;;5057758;28;20398;-75
2022/07/23 11:47:08;;;;;;;4.50;4.10;;;34.00;30.80;;;;;;5050023;28;20033;-75
2022/07/23 11:49:34;;;;;;;5.60;3.90;;;34.00;31.10;;;;;;5091055;28;20035;-75
2022/07/23 11:52:07;;;;;;;5.32;3.70;;;33.90;31.30;;;;;;5111468;28;20020;-75
2022/07/23 11:54:35;;;;;;;4.85;3.50;;;33.90;31.70;;;;;;5111554;28;20011;-75
2022/07/23 11:57:02;;;;;;;4.03;3.25;;;34.00;31.70;;;;;;5111637;28;20455;-75
2022/07/23 11:59:31;;;;;;;4.43;4.03;;;33.90;31.70;;;;;;5110353;28;20110;-75
2022/07/23 12:02:04;;;;;;;6.68;3.95;;;33.90;31.70;;;;;;5108488;28;20388;-75
2022/07/23 12:04:46;;;;;;;9.68;5.30;;;33.90;31.60;;;;;;5111294;28;20047;-75
2022/07/23 12:07:25;;;;;;;8.25;7.45;;;33.90;31.70;;;;;;5110249;28;20028;-75
2022/07/23 12:09:51;;;;;;;10.27;8.27;;;33.90;32.20;;;;;;5107316;28;20721;-75
2022/07/23 12:12:16;;;;;;;5.00;4.45;;;33.90;32.40;;;;;;5111187;28;20334;-76
2022/07/23 12:14:57;;;;;;;5.97;4.40;;;33.90;32.50;;;;;;5111403;28;20016;-76
2022/07/23 12:17:32;;;;;;;5.55;4.03;;;33.80;31.80;;;;;;5109266;28;20024;-75
2022/07/23 12:20:02;;;;;;;5.53;4.03;;;33.80;32.10;;;;;;5111188;28;20113;-75
2022/07/23 12:22:41;;;;;;;7.30;4.50;;;33.80;32.00;;;;;;5111557;28;20027;-76
2022/07/23 12:25:14;;;;;;;5.22;4.07;;;33.70;32.30;;;;;;5113851;28;20024;-75
2022/07/23 12:27:41;;;;;;;;;;;33.70;32.50;;;;;;5114487;28;20327;-75
2022/07/23 12:30:24;;;;;;;5.07;4.10;;;33.80;32.40;;;;;;5111248;28;20052;-76
2022/07/23 12:32:52;;;;;;;5.25;3.67;;;33.80;32.50;;;;;;5108301;28;20027;-76
2022/07/23 12:35:18;;;;;;;5.68;4.20;;;33.80;32.50;;;;;;5113969;28;20493;-76
2022/07/23 12:37:46;;;;;;;5.07;4.07;;;33.80;32.70;;;;;;5121019;27;20024;-73
2022/07/23 12:40:41;;;;;;;6.65;4.00;;;33.90;32.50;;;;;;5124065;27;20473;-73
2022/07/23 12:43:11;;;;;;;5.80;3.92;;;33.90;32.70;;;;;;5121486;27;20046;-73
2022/07/23 12:46:04;;;;;;;5.43;3.95;;;34.00;32.40;;;;;;5124853;27;20023;-73
2022/07/23 12:48:36;;;;;;;5.13;3.90;;;34.10;32.40;;;;;;5122729;27;20036;-73
2022/07/23 12:51:16;;;;;;;8.95;3.85;;;34.10;32.20;;;;;;5121251;27;20415;-73
2022/07/23 12:53:44;;;;;;;10.35;3.72;;;34.10;31.90;;;;;;5122195;27;20487;-73
2022/07/23 12:56:17;;;;;;;5.05;4.00;;;34.10;31.70;;;;;;5121336;27;20031;-72
2022/07/23 12:58:46;;;;;;;7.00;3.63;;;34.20;32.00;;;;;;5124654;27;20077;-74